createdAt,value
2023-01-29T00:02:17.576Z,101093.47
2023-01-29T00:05:20.732Z,101085.41
2023-01-29T00:08:12.616Z,101091.03
2023-01-29T00:11:19.324Z,101092.09
2023-01-29T00:14:07.893Z,101086.16
2023-01-29T00:16:38.628Z,101089.94
2023-01-29T00:19:28.202Z,101099.06
2023-01-29T00:25:37.157Z,101091.78
2023-01-29T00:28:22.909Z,101087.72
2023-01-29T00:30:49.867Z,101098.47
2023-01-29T00:33:20.061Z,101098.47
2023-01-29T00:36:10.691Z,101109.22
2023-01-29T00:38:40.777Z,101100.63
2023-01-29T00:41:15.283Z,101105.16
2023-01-29T00:43:42.049Z,101105.16
2023-01-29T00:46:11.792Z,101107.03
2023-01-29T00:48:38.945Z,101105.44
2023-01-29T00:51:09.273Z,101103.25
2023-01-29T00:53:36.280Z,101113.19
2023-01-29T00:56:06.998Z,101103.75
2023-01-29T00:58:39.592Z,101113.69
2023-01-29T01:01:06.745Z,101116.38
2023-01-29T01:03:36.188Z,101112.34
2023-01-29T01:06:10.982Z,101104.28
2023-01-29T01:08:38.010Z,101111.78
2023-01-29T01:11:09.903Z,101114.72
2023-01-29T01:13:36.606Z,101112.25
2023-01-29T01:16:16.892Z,101117.91
2023-01-29T01:18:49.901Z,101107.44
2023-01-29T01:21:19.572Z,101108.47
2023-01-29T01:24:09.525Z,101115.72
2023-01-29T01:26:40.113Z,101113.31
2023-01-29T01:29:10.164Z,101111.69
2023-01-29T01:31:46.034Z,101100.12
2023-01-29T01:34:34.903Z,101103.06
2023-01-29T01:37:08.025Z,101107.91
2023-01-29T01:39:39.115Z,101109.75
2023-01-29T01:42:13.992Z,101108.16
2023-01-29T01:45:04.180Z,101112.69
2023-01-29T01:47:39.404Z,101105.72
2023-01-29T01:50:15.051Z,101107.84
2023-01-29T01:52:49.771Z,101116.97
2023-01-29T01:55:25.744Z,101115.34
2023-01-29T01:57:58.090Z,101117.22
2023-01-29T02:00:28.305Z,101119.09
2023-01-29T02:03:05.159Z,101115.84
2023-01-29T02:05:39.833Z,101122.03
2023-01-29T02:08:13.750Z,101131.94
2023-01-29T02:10:45.232Z,101134.06
2023-01-29T02:13:20.460Z,101128.69
2023-01-29T02:15:50.676Z,101125.47
2023-01-29T02:18:23.150Z,101125.47
2023-01-29T02:21:22.187Z,101126.56
2023-01-29T02:24:04.503Z,101124.09
2023-01-29T02:27:05.823Z,101128.66
2023-01-29T02:29:43.182Z,101135.91
2023-01-29T02:32:17.300Z,101135.09
2023-01-29T02:35:00.793Z,101136.19
2023-01-29T02:37:51.161Z,101142.59
2023-01-29T02:40:31.133Z,101136.41
2023-01-29T02:43:08.048Z,101123.25
2023-01-29T02:45:41.107Z,101118.97
2023-01-29T02:48:11.574Z,101122.47
2023-01-29T02:50:47.501Z,101127.81
2023-01-29T02:53:18.556Z,101122.69
2023-01-29T02:55:55.612Z,101132.88
2023-01-29T02:58:38.606Z,101133.13
2023-01-29T03:01:23.460Z,101146.78
2023-01-29T03:04:02.857Z,101148.66
2023-01-29T03:06:37.708Z,101155.34
2023-01-29T03:09:25.841Z,101155.34
2023-01-29T03:12:08.244Z,101152.94
2023-01-29T03:14:45.275Z,101154.81
2023-01-29T03:17:17.341Z,101168.22
2023-01-29T03:19:49.583Z,101153.16
2023-01-29T03:22:19.091Z,101162.28
2023-01-29T03:24:58.495Z,101164.16
2023-01-29T03:27:41.231Z,101156.38
2023-01-29T03:30:17.008Z,101161.72
2023-01-29T03:32:50.641Z,101159.06
2023-01-29T03:35:25.793Z,101160.94
2023-01-29T03:37:53.248Z,101164.66
2023-01-29T03:40:20.398Z,101174.56
2023-01-29T03:43:10.039Z,101179.37
2023-01-29T03:45:45.189Z,101180.44
2023-01-29T03:48:45.256Z,101181.22
2023-01-29T03:51:32.233Z,101183.38
2023-01-29T03:54:17.196Z,101183.38
2023-01-29T03:57:03.070Z,101183.63
2023-01-29T03:59:46.719Z,101179.31
2023-01-29T04:02:35.046Z,101183.06
2023-01-29T04:05:12.625Z,101174.47
2023-01-29T04:07:45.480Z,101181.44
2023-01-29T04:10:25.227Z,101186.00
2023-01-29T04:13:06.250Z,101184.62
2023-01-29T04:15:40.161Z,101179.25
2023-01-29T04:18:07.324Z,101184.62
2023-01-29T04:20:36.247Z,101177.66
2023-01-29T04:23:08.418Z,101178.69
2023-01-29T04:25:47.192Z,101173.31
2023-01-29T04:28:34.846Z,101170.09
2023-01-29T04:31:08.667Z,101168.50
2023-01-29T04:33:58.578Z,101168.50
2023-01-29T04:36:47.704Z,101161.50
2023-01-29T04:39:47.279Z,101169.00
2023-01-29T04:42:32.405Z,101165.50
2023-01-29T04:45:27.686Z,101164.69
2023-01-29T04:48:14.310Z,101159.81
2023-01-29T04:51:11.741Z,101168.69
2023-01-29T04:53:57.807Z,101168.94
2023-01-29T04:56:49.217Z,101167.28
2023-01-29T04:59:23.973Z,101171.84
2023-01-29T05:01:58.776Z,101172.91
2023-01-29T05:04:35.033Z,101167.56
2023-01-29T05:07:07.706Z,101172.13
2023-01-29T05:09:39.727Z,101170.50
2023-01-29T05:12:26.467Z,101165.37
2023-01-29T05:14:56.749Z,101165.37
2023-01-29T05:17:46.768Z,101162.69
2023-01-29T05:20:15.040Z,101168.31
2023-01-29T05:22:44.933Z,101167.25
2023-01-29T05:25:32.889Z,101172.59
2023-01-29T05:31:12.886Z,101160.28
2023-01-29T05:33:49.253Z,101167.25
2023-01-29T05:36:17.565Z,101161.88
2023-01-29T05:39:04.425Z,101161.06
2023-01-29T05:42:10.088Z,101175.28
2023-01-29T05:44:50.367Z,101176.34
2023-01-29T05:47:27.252Z,101172.59
2023-01-29T05:49:55.459Z,101183.31
2023-01-29T05:52:22.843Z,101187.88
2023-01-29T05:54:53.155Z,101187.88
2023-01-29T05:57:25.787Z,101192.44
2023-01-29T05:59:52.734Z,101187.88
2023-01-29T06:02:25.732Z,101182.19
2023-01-29T06:04:55.948Z,101177.31
2023-01-29T06:07:30.829Z,101177.78
2023-01-29T06:10:00.684Z,101194.41
2023-01-29T06:12:28.269Z,101186.59
2023-01-29T06:14:55.204Z,101191.41
2023-01-29T06:17:24.943Z,101194.88
2023-01-29T06:19:51.954Z,101201.84
2023-01-29T06:22:24.998Z,101201.84
2023-01-29T06:24:52.072Z,101203.72
2023-01-29T06:27:22.238Z,101208.28
2023-01-29T06:29:52.277Z,101208.81
2023-01-29T06:32:19.675Z,101206.47
2023-01-29T06:34:49.984Z,101206.25
2023-01-29T06:37:18.573Z,101196.66
2023-01-29T06:39:51.964Z,101205.25
2023-01-29T06:42:19.047Z,101205.84
2023-01-29T06:44:49.671Z,101210.13
2023-01-29T06:47:16.573Z,101206.37
2023-01-29T06:49:45.957Z,101208.03
2023-01-29T06:52:16.490Z,101206.94
2023-01-29T06:54:43.725Z,101210.44
2023-01-29T06:57:10.765Z,101211.25
2023-01-29T06:59:41.842Z,101205.88
2023-01-29T07:02:11.592Z,101215.53
2023-01-29T07:04:42.411Z,101207.50
2023-01-29T07:07:09.630Z,101202.13
2023-01-29T07:09:37.072Z,101208.06
2023-01-29T07:12:08.069Z,101212.38
2023-01-29T07:14:41.575Z,101209.19
2023-01-29T07:17:11.630Z,101208.12
2023-01-29T07:19:38.899Z,101214.06
2023-01-29T07:22:09.121Z,101211.38
2023-01-29T07:24:36.179Z,101212.19
2023-01-29T07:27:02.986Z,101218.34
2023-01-29T07:29:30.217Z,101213.00
2023-01-29T07:31:57.633Z,101209.75
2023-01-29T07:34:24.617Z,101203.34
2023-01-29T07:36:54.147Z,101200.66
2023-01-29T07:39:21.418Z,101202.53
2023-01-29T07:41:51.647Z,101204.38
2023-01-29T07:44:22.745Z,101207.06
2023-01-29T07:46:53.539Z,101198.22
2023-01-29T07:49:24.897Z,101209.75
2023-01-29T07:51:58.498Z,101216.75
2023-01-29T07:54:27.202Z,101218.84
2023-01-29T07:57:00.327Z,101232.50
2023-01-29T07:59:27.546Z,101220.19
2023-01-29T08:01:58.148Z,101220.19
2023-01-29T08:04:25.524Z,101210.81
2023-01-29T08:06:58.602Z,101218.84
2023-01-29T08:09:28.758Z,101215.63
2023-01-29T08:11:58.809Z,101220.47
2023-01-29T08:14:31.927Z,101219.16
2023-01-29T08:17:01.869Z,101223.22
2023-01-29T08:19:34.997Z,101216.53
2023-01-29T08:22:05.318Z,101225.16
2023-01-29T08:24:53.231Z,101216.84
2023-01-29T08:27:24.583Z,101218.50
2023-01-29T08:29:54.342Z,101223.31
2023-01-29T08:32:23.883Z,101220.66
2023-01-29T08:34:53.340Z,101236.25
2023-01-29T08:37:24.472Z,101225.28
2023-01-29T08:39:58.105Z,101225.56
2023-01-29T08:42:27.678Z,101234.19
2023-01-29T08:45:14.184Z,101233.41
2023-01-29T08:47:47.360Z,101229.44
2023-01-29T08:50:17.452Z,101243.41
2023-01-29T08:52:45.820Z,101247.44
2023-01-29T08:55:15.746Z,101241.81
2023-01-29T08:57:45.395Z,101253.94
2023-01-29T09:00:12.581Z,101253.44
2023-01-29T09:02:41.727Z,101256.94
2023-01-29T09:05:09.613Z,101268.19
2023-01-29T09:07:36.453Z,101271.47
2023-01-29T09:10:45.352Z,101273.06
2023-01-29T09:13:12.000Z,101274.44
2023-01-29T09:15:41.637Z,101274.19
2023-01-29T09:18:08.325Z,101276.63
2023-01-29T09:20:37.946Z,101277.44
2023-01-29T09:23:09.671Z,101279.06
2023-01-29T09:25:39.269Z,101284.16
2023-01-29T09:28:06.090Z,101279.38
2023-01-29T09:30:36.356Z,101281.56
2023-01-29T09:33:07.316Z,101289.34
2023-01-29T09:35:34.715Z,101285.59
2023-01-29T09:38:01.521Z,101292.59
2023-01-29T09:41:10.114Z,101294.44
2023-01-29T09:44:06.231Z,101297.13
2023-01-29T09:46:43.523Z,101300.06
2023-01-29T09:49:27.628Z,101300.66
2023-01-29T09:52:05.018Z,101296.88
2023-01-29T09:54:37.641Z,101301.78
2023-01-29T09:57:44.286Z,101295.34
2023-01-29T10:00:32.960Z,101289.47
2023-01-29T10:03:14.785Z,101294.84
2023-01-29T10:06:06.408Z,101289.22
2023-01-29T10:09:02.557Z,101294.09
2023-01-29T10:11:48.267Z,101293.00
2023-01-29T10:14:27.542Z,101301.06
2023-01-29T10:17:28.680Z,101305.63
2023-01-29T10:20:41.463Z,101300.25
2023-01-29T10:23:17.370Z,101306.16
2023-01-29T10:25:46.699Z,101301.87
2023-01-29T10:28:31.767Z,101305.13
2023-01-29T10:31:08.893Z,101301.09
2023-01-29T10:34:02.449Z,101306.25
2023-01-29T10:36:35.368Z,101293.38
2023-01-29T10:39:05.750Z,101292.06
2023-01-29T10:41:46.178Z,101285.38
2023-01-29T10:44:53.673Z,101284.84
2023-01-29T10:47:36.880Z,101291.59
2023-01-29T10:50:26.847Z,101285.94
2023-01-29T10:52:53.525Z,101287.59
2023-01-29T10:55:40.850Z,101289.22
2023-01-29T10:58:46.876Z,101291.31
2023-01-29T11:01:14.090Z,101286.53
2023-01-29T11:03:41.038Z,101279.28
2023-01-29T11:06:14.118Z,101273.09
2023-01-29T11:08:49.832Z,101269.34
2023-01-29T11:11:25.322Z,101278.50
2023-01-29T11:14:04.887Z,101278.78
2023-01-29T11:16:34.641Z,101267.22
2023-01-29T11:19:04.591Z,101255.41
2023-01-29T11:21:50.249Z,101252.72
2023-01-29T11:24:20.437Z,101240.37
2023-01-29T11:26:55.422Z,101231.25
2023-01-29T11:29:37.965Z,101226.69
2023-01-29T11:32:12.707Z,101208.94
2023-01-29T11:34:58.260Z,101217.81
2023-01-29T11:37:33.125Z,101202.28
2023-01-29T11:40:19.899Z,101197.69
2023-01-29T11:42:47.738Z,101196.91
2023-01-29T11:45:23.985Z,101191.53
2023-01-29T11:47:56.232Z,101191.25
2023-01-29T11:50:33.055Z,101186.69
2023-01-29T11:53:03.941Z,101194.75
2023-01-29T11:55:49.346Z,101193.69
2023-01-29T11:58:29.760Z,101193.13
2023-01-29T12:00:58.830Z,101196.91
2023-01-29T12:03:43.063Z,101191.53
2023-01-29T12:06:18.207Z,101188.84
2023-01-29T12:08:45.179Z,101187.19
2023-01-29T12:11:27.208Z,101189.87
2023-01-29T12:13:58.263Z,101185.59
2023-01-29T12:16:51.087Z,101184.78
2023-01-29T12:19:36.324Z,101182.09
2023-01-29T12:22:27.579Z,101182.91
2023-01-29T12:24:59.951Z,101181.28
2023-01-29T12:28:24.965Z,101180.22
2023-01-29T12:31:06.646Z,101168.41
2023-01-29T12:33:44.173Z,101169.22
2023-01-29T12:36:26.062Z,101172.16
2023-01-29T12:38:54.175Z,101163.03
2023-01-29T12:41:37.312Z,101156.84
2023-01-29T12:44:33.611Z,101164.91
2023-01-29T12:47:03.085Z,101149.59
2023-01-29T12:49:33.993Z,101146.91
2023-01-29T12:52:12.656Z,101146.91
2023-01-29T12:55:03.240Z,101141.56
2023-01-29T12:57:51.063Z,101136.19
2023-01-29T13:00:42.694Z,101134.06
2023-01-29T13:03:40.137Z,101127.88
2023-01-29T13:06:11.838Z,101118.75
2023-01-29T13:08:48.954Z,101123.31
2023-01-29T13:11:34.342Z,101117.94
2023-01-29T13:14:08.728Z,101115.50
2023-01-29T13:16:45.169Z,101112.56
2023-01-29T13:19:25.469Z,101112.06
2023-01-29T13:21:57.661Z,101109.91
2023-01-29T13:24:32.893Z,101093.28
2023-01-29T13:26:59.666Z,101095.94
2023-01-29T13:29:31.702Z,101097.56
2023-01-29T13:32:08.406Z,101099.44
2023-01-29T13:34:44.277Z,101091.09
2023-01-29T13:37:19.657Z,101085.72
2023-01-29T13:39:53.309Z,101083.56
2023-01-29T13:42:40.539Z,101092.72
2023-01-29T13:45:09.796Z,101089.50
2023-01-29T13:47:39.562Z,101077.09
2023-01-29T13:50:07.947Z,101080.87
2023-01-29T13:52:45.707Z,101086.25
2023-01-29T13:55:15.985Z,101080.87
2023-01-29T13:57:46.007Z,101082.47
2023-01-29T14:00:21.829Z,101068.81
2023-01-29T14:03:11.790Z,101073.09
2023-01-29T14:05:42.851Z,101072.84
2023-01-29T14:08:09.523Z,101074.47
2023-01-29T14:10:38.808Z,101074.47
2023-01-29T14:13:17.764Z,101067.47
2023-01-29T14:15:46.405Z,101063.72
2023-01-29T14:18:21.442Z,101068.25
2023-01-29T14:20:48.409Z,101074.97
2023-01-29T14:23:32.529Z,101074.19
2023-01-29T14:26:01.071Z,101076.06
2023-01-29T14:28:33.235Z,101080.34
2023-01-29T14:31:03.635Z,101069.09
2023-01-29T14:33:38.208Z,101071.22
2023-01-29T14:36:13.788Z,101069.62
2023-01-29T14:38:47.782Z,101071.22
2023-01-29T14:41:37.397Z,101079.28
2023-01-29T14:44:41.996Z,101073.38
2023-01-29T14:47:21.974Z,101073.87
2023-01-29T14:50:03.103Z,101070.63
2023-01-29T14:52:39.005Z,101079.78
2023-01-29T14:55:41.073Z,101071.16
2023-01-29T14:58:18.709Z,101077.06
2023-01-29T15:00:50.770Z,101072.50
2023-01-29T15:03:27.630Z,101066.88
2023-01-29T15:05:56.059Z,101071.16
2023-01-29T15:08:51.012Z,101069.03
2023-01-29T15:11:36.140Z,101068.53
2023-01-29T15:14:31.853Z,101054.81
2023-01-29T15:17:21.115Z,101054.59
2023-01-29T15:19:49.504Z,101049.75
2023-01-29T15:22:21.682Z,101053.00
2023-01-29T15:25:03.889Z,101059.16
2023-01-29T15:27:31.275Z,101068.56
2023-01-29T15:30:02.888Z,101064.81
2023-01-29T15:32:36.444Z,101059.97
2023-01-29T15:35:35.325Z,101058.91
2023-01-29T15:38:01.898Z,101055.97
2023-01-29T15:40:29.059Z,101056.78
2023-01-29T15:42:55.962Z,101053.00
2023-01-29T15:45:32.993Z,101053.56
2023-01-29T15:48:14.458Z,101047.94
2023-01-29T15:50:46.238Z,101062.44
2023-01-29T15:53:35.778Z,101063.25
2023-01-29T15:56:02.729Z,101067.28
2023-01-29T15:58:32.376Z,101067.28
2023-01-29T16:01:00.961Z,101066.47
2023-01-29T16:03:32.716Z,101067.81
2023-01-29T16:06:02.762Z,101079.12
2023-01-29T16:08:33.339Z,101074.56
2023-01-29T16:11:03.264Z,101080.47
2023-01-29T16:13:42.772Z,101078.34
2023-01-29T16:16:18.855Z,101078.06
2023-01-29T16:18:58.960Z,101084.25
2023-01-29T16:21:32.767Z,101076.75
2023-01-29T16:24:01.212Z,101079.66
2023-01-29T16:26:43.559Z,101076.75
2023-01-29T16:29:15.705Z,101078.34
2023-01-29T16:31:50.449Z,101081.59
2023-01-29T16:34:22.967Z,101079.44
2023-01-29T16:36:50.079Z,101083.19
2023-01-29T16:39:44.418Z,101087.25
2023-01-29T16:42:14.413Z,101081.59
2023-01-29T16:44:51.448Z,101092.06
2023-01-29T16:47:27.725Z,101088.59
2023-01-29T16:50:00.030Z,101090.19
2023-01-29T16:52:33.296Z,101087.50
2023-01-29T16:55:13.762Z,101083.78
2023-01-29T16:57:41.472Z,101096.12
2023-01-29T17:00:27.947Z,101102.59
2023-01-29T17:03:00.766Z,101098.25
2023-01-29T17:05:31.123Z,101104.47
2023-01-29T17:07:58.919Z,101103.62
2023-01-29T17:10:33.189Z,101104.72
2023-01-29T17:13:12.325Z,101103.09
2023-01-29T17:15:42.214Z,101100.12
2023-01-29T17:18:25.373Z,101098.25
2023-01-29T17:20:52.551Z,101098.25
2023-01-29T17:23:23.883Z,101103.62
2023-01-29T17:25:53.779Z,101098.25
2023-01-29T17:28:26.883Z,101090.47
2023-01-29T17:31:05.938Z,101085.91
2023-01-29T17:33:42.751Z,101087.50
2023-01-29T17:36:15.759Z,101083.78
2023-01-29T17:38:42.481Z,101082.13
2023-01-29T17:41:21.256Z,101080.53
2023-01-29T17:43:51.762Z,101081.31
2023-01-29T17:46:22.232Z,101080.53
2023-01-29T17:48:51.779Z,101075.16
2023-01-29T17:51:24.044Z,101070.84
2023-01-29T17:53:51.599Z,101064.69
2023-01-29T17:56:24.535Z,101064.91
2023-01-29T17:58:53.899Z,101061.19
2023-01-29T18:01:24.047Z,101062.78
2023-01-29T18:03:52.483Z,101063.59
2023-01-29T18:06:35.381Z,101060.63
2023-01-29T18:09:06.241Z,101057.94
2023-01-29T18:11:34.202Z,101051.53
2023-01-29T18:14:14.208Z,101064.97
2023-01-29T18:16:48.787Z,101057.69
2023-01-29T18:19:23.995Z,101055.81
2023-01-29T18:22:00.003Z,101054.75
2023-01-29T18:24:33.595Z,101046.16
2023-01-29T18:27:08.037Z,101043.72
2023-01-29T18:29:38.242Z,101047.19
2023-01-29T18:32:05.631Z,101041.00
2023-01-29T18:34:32.862Z,101037.25
2023-01-29T18:36:59.992Z,101036.44
2023-01-29T18:39:27.112Z,101031.06
2023-01-29T18:41:57.562Z,101034.84
2023-01-29T18:44:24.705Z,101025.69
2023-01-29T18:46:51.660Z,101016.03
2023-01-29T18:49:22.998Z,101027.59
2023-01-29T18:51:50.139Z,101016.03
2023-01-29T18:54:20.573Z,101020.59
2023-01-29T18:57:11.498Z,101016.56
2023-01-29T18:59:37.656Z,101012.25
2023-01-29T19:02:07.744Z,101006.87
2023-01-29T19:04:41.962Z,101016.03
2023-01-29T19:07:14.805Z,101015.19
2023-01-29T19:09:45.124Z,101007.41
2023-01-29T19:12:16.514Z,101004.72
2023-01-29T19:14:47.115Z,100999.63
2023-01-29T19:17:14.178Z,100998.81
2023-01-29T19:19:41.318Z,100993.44
2023-01-29T19:22:08.341Z,100996.37
2023-01-29T19:24:35.497Z,100996.37
2023-01-29T19:27:07.123Z,100991.28
2023-01-29T19:29:38.127Z,100985.34
2023-01-29T19:32:05.222Z,100990.72
2023-01-29T19:34:35.299Z,100989.91
2023-01-29T19:37:02.413Z,100993.69
2023-01-29T19:39:29.979Z,100987.50
2023-01-29T19:41:57.958Z,100986.72
2023-01-29T19:44:25.079Z,100995.81
2023-01-29T19:47:01.065Z,100992.59
2023-01-29T19:49:35.868Z,100987.22
2023-01-29T19:52:08.635Z,100987.22
2023-01-29T19:54:38.919Z,100997.16
2023-01-29T19:57:06.040Z,100991.00
2023-01-29T19:59:33.186Z,100985.87
2023-01-29T20:02:03.105Z,100985.87
2023-01-29T20:04:33.422Z,100993.41
2023-01-29T20:07:06.761Z,100981.03
2023-01-29T20:09:35.777Z,100989.06
2023-01-29T20:12:05.600Z,100982.09
2023-01-29T20:14:32.621Z,100980.50
2023-01-29T20:17:01.496Z,100976.19
2023-01-29T20:19:31.541Z,100966.50
2023-01-29T20:22:01.983Z,100960.31
2023-01-29T20:24:37.836Z,100957.91
2023-01-29T20:27:07.187Z,100948.25
2023-01-29T20:29:34.241Z,100943.94
2023-01-29T20:32:01.378Z,100943.13
2023-01-29T20:34:29.127Z,100940.72
2023-01-29T20:37:00.138Z,100939.13
2023-01-29T20:39:26.984Z,100937.47
2023-01-29T20:41:57.289Z,100940.16
2023-01-29T20:44:26.401Z,100934.28
2023-01-29T20:46:53.441Z,100940.69
2023-01-29T20:49:21.066Z,100938.00
2023-01-29T20:51:53.583Z,100939.06
2023-01-29T20:54:20.625Z,100941.22
2023-01-29T20:56:50.475Z,100943.91
2023-01-29T20:59:17.727Z,100941.22
2023-01-29T21:01:49.465Z,100943.38
2023-01-29T21:04:16.350Z,100945.25
2023-01-29T21:06:46.261Z,100943.62
2023-01-29T21:09:13.437Z,100949.00
2023-01-29T21:11:40.470Z,100949.25
2023-01-29T21:14:14.187Z,100948.72
2023-01-29T21:16:41.273Z,100948.72
2023-01-29T21:19:13.074Z,100939.06
2023-01-29T21:21:42.702Z,100936.38
2023-01-29T21:24:10.116Z,100945.47
2023-01-29T21:26:36.878Z,100936.09
2023-01-29T21:29:04.555Z,100936.91
2023-01-29T21:31:34.855Z,100935.28
2023-01-29T21:34:06.422Z,100935.28
2023-01-29T21:36:37.634Z,100944.38
2023-01-29T21:39:08.518Z,100932.03
2023-01-29T21:41:37.983Z,100936.59
2023-01-29T21:44:04.840Z,100939.56
2023-01-29T21:46:35.008Z,100930.69
2023-01-29T21:49:01.837Z,100933.38
2023-01-29T21:51:28.928Z,100940.09
2023-01-29T21:53:58.810Z,100934.72
2023-01-29T21:56:25.519Z,100932.03
2023-01-29T21:58:52.723Z,100930.66
2023-01-29T22:01:38.179Z,100934.16
2023-01-29T22:04:06.535Z,100930.66
2023-01-29T22:06:33.656Z,100924.50
2023-01-29T22:09:00.466Z,100922.88
2023-01-29T22:11:27.886Z,100919.66
2023-01-29T22:13:54.897Z,100921.25
2023-01-29T22:16:21.752Z,100928.78
2023-01-29T22:18:49.812Z,100920.72
2023-01-29T22:21:20.194Z,100916.44
2023-01-29T22:23:49.165Z,100916.69
2023-01-29T22:26:20.013Z,100918.56
2023-01-29T22:28:50.225Z,100912.38
2023-01-29T22:31:17.165Z,100916.94
2023-01-29T22:33:44.047Z,100918.03
2023-01-29T22:36:11.041Z,100905.91
2023-01-29T22:38:46.581Z,100913.16
2023-01-29T22:41:17.461Z,100907.78
2023-01-29T22:43:44.225Z,100905.09
2023-01-29T22:46:12.264Z,100899.72
2023-01-29T22:48:40.855Z,100896.50
2023-01-29T22:51:07.782Z,100897.56
2023-01-29T22:53:36.118Z,100892.47
2023-01-29T22:56:06.081Z,100888.97
2023-01-29T22:58:33.061Z,100889.22
2023-01-29T23:01:04.626Z,100886.31
2023-01-29T23:03:31.639Z,100873.12
2023-01-29T23:05:58.730Z,100877.69
2023-01-29T23:08:25.754Z,100871.53
2023-01-29T23:10:58.688Z,100874.22
2023-01-29T23:13:25.496Z,100866.97
2023-01-29T23:15:59.600Z,100869.66
2023-01-29T23:18:29.912Z,100869.12
2023-01-29T23:21:00.361Z,100861.06
2023-01-29T23:23:31.621Z,100858.38
2023-01-29T23:25:59.491Z,100855.94
2023-01-29T23:28:32.379Z,100853.53
2023-01-29T23:30:59.393Z,100849.22
2023-01-29T23:33:29.380Z,100857.25
2023-01-29T23:35:58.957Z,100850.28
2023-01-29T23:38:26.152Z,100838.75
2023-01-29T23:40:58.976Z,100843.31
2023-01-29T23:43:28.857Z,100834.72
2023-01-29T23:45:56.179Z,100826.66
2023-01-29T23:48:28.882Z,100825.06
2023-01-29T23:50:59.194Z,100822.66
2023-01-29T23:53:29.311Z,100822.66
2023-01-29T23:55:58.729Z,100822.09
2023-01-29T23:58:29.816Z,100827.47
